CW6037 Weather Reports


Display with metric or nautical units.
time (UTC)temp
F
wind
direction
speed
MPH
gust
MPH
rain 1hr
in
rain 24hr
in
rain mn
in
humidity
%
barometer
mb
20181219050157 17 277 0.0 0.0 0.00 0.00 0.00 91 1018.8
20181219045654 17 277 0.0 0.0 0.00 0.00 0.00 91 1018.6
20181219045154 17 277 0.0 1.0 0.00 0.00 0.00 90 1018.6
20181219044655 17 277 0.0 1.0 0.00 0.00 0.00 90 1018.6
20181219044154 17 277 0.0 0.0 0.00 0.00 0.00 90 1018.5
20181219043652 17 277 0.0 0.0 0.00 0.00 0.00 90 1018.5
20181219043150 17 277 0.0 0.0 0.00 0.00 0.00 90 1018.5
20181219042649 18 277 0.0 0.0 0.00 0.00 0.00 90 1018.7
20181219042146 18 277 0.0 0.0 0.00 0.00 0.00 90 1018.7
20181219041645 18 277 0.0 0.0 0.00 0.00 0.00 90 1018.7
20181219041144 18 277 0.0 0.0 0.00 0.00 0.00 90 1018.9
20181219040641 18 277 0.0 0.0 0.00 0.00 0.00 90 1018.9
20181219040142 18 277 0.0 0.0 0.00 0.00 0.00 90 1018.9
20181219035639 18 277 0.0 0.0 0.00 0.00 0.00 90 1019.2
20181219035140 18 277 0.0 0.0 0.00 0.00 0.00 90 1019.2
20181219034640 18 277 0.0 0.0 0.00 0.00 0.00 89 1019.2
20181219034129 18 277 0.0 0.0 0.00 0.00 0.00 89 1019.3
20181219033628 18 277 0.0 0.0 0.00 0.00 0.00 89 1019.3
20181219033130 18 277 0.0 0.0 0.00 0.00 0.00 88 1019.3
20181219032622 19 277 0.0 0.0 0.00 0.00 0.00 88 1019.3
20181219032018 19 277 0.0 0.0 0.00 0.00 0.00 88 1018.6
20181219031517 19 277 0.0 0.0 0.00 0.00 0.00 87 1019.3
20181219031014 19 277 0.0 0.0 0.00 0.00 0.00 87 1018.6
20181219030511 19 277 0.0 0.0 0.00 0.00 0.00 87 1019.4
20181219030012 19 277 0.0 0.0 0.00 0.00 0.00 87 1019.4
20181219025507 19 277 0.0 0.0 0.00 0.00 0.00 86 1019.4
20181219025006 19 277 0.0 0.0 0.00 0.00 0.00 87 1019.4
20181219024504 20 277 0.0 0.0 0.00 0.00 0.00 86 1019.4
20181219024002 20 277 0.0 0.0 0.00 0.00 0.00 85 1019.3
20181219023502 20 277 0.0 0.0 0.00 0.00 0.00 85 1019.3
20181219023000 20 277 0.0 0.0 0.00 0.00 0.00 85 1019.3
20181219022457 20 277 0.0 0.0 0.00 0.00 0.00 85 1019.3
20181219021956 20 277 0.0 0.0 0.00 0.00 0.00 85 1019.3
20181219021448 20 277 0.0 0.0 0.00 0.00 0.00 85 1019.3
20181219020950 20 277 0.0 0.0 0.00 0.00 0.00 84 1019.3
20181219020450 21 277 0.0 0.0 0.00 0.00 0.00 84 1019.3
20181219015948 21 277 0.0 0.0 0.00 0.00 0.00 84 1019.3
20181219015447 21 277 0.0 0.0 0.00 0.00 0.00 83 1019.1
20181219014946 21 277 0.0 0.0 0.00 0.00 0.00 83 1019.1
20181219014443 21 277 0.0 0.0 0.00 0.00 0.00 82 1019.1
20181219013944 21 277 0.0 0.0 0.00 0.00 0.00 82 1018.9
20181219013441 22 277 0.0 0.0 0.00 0.00 0.00 82 1018.9
20181219012942 22 277 0.0 2.0 0.00 0.00 0.00 81 1019.0
20181219012440 22 277 0.0 3.0 0.00 0.00 0.00 81 1019.0
20181219011939 22 277 0.0 3.0 0.00 0.00 0.00 82 1019.0
20181219011438 22 277 0.0 2.0 0.00 0.00 0.00 82 1019.3
20181219010936 22 286 0.0 2.0 0.00 0.00 0.00 82 1019.3
20181219010436 22 290 0.0 1.0 0.00 0.00 0.00 82 1019.3
20181219005938 22 290 0.0 1.0 0.00 0.00 0.00 81 1019.2
20181219005438 22 290 0.0 1.0 0.00 0.00 0.00 81 1019.2
20181219004936 22 290 0.0 1.0 0.00 0.00 0.00 80 1019.2
20181219004436 22 290 0.0 1.0 0.00 0.00 0.00 79 1019.1
20181219003934 22 290 0.0 0.0 0.00 0.00 0.00 79 1019.1
20181219003435 22 290 0.0 1.0 0.00 0.00 0.00 79 1019.1
20181219002933 22 290 0.0 1.0 0.00 0.00 0.00 79 1019.2
20181219002709 23 290 0.0 1.0 0.00 0.00 0.00 79 1019.2
20181219001933 23 290 0.0 1.0 0.00 0.00 0.00 79 1019.2
20181219001429 23 290 0.0 1.0 0.00 0.00 0.00 79 1019.3
20181219000928 23 290 0.0 0.0 0.00 0.00 0.00 78 1019.3
20181219000424 23 290 0.0 2.0 0.00 0.00 0.00 78 1019.3
20181218235921 23 290 0.0 2.0 0.00 0.00 0.00 78 1019.2
20181218235418 23 290 0.0 3.0 0.00 0.00 0.00 78 1019.2
20181218234917 23 290 0.0 3.0 0.00 0.00 0.00 77 1019.2
20181218234413 24 290 0.0 3.0 0.00 0.00 0.00 77 1019.2
20181218233909 24 290 0.0 3.0 0.00 0.00 0.00 77 1019.2
20181218233410 24 290 0.0 4.0 0.00 0.00 0.00 77 1019.2
20181218232909 24 290 1.0 4.0 0.00 0.00 0.00 76 1019.0
20181218232406 24 250 1.0 8.0 0.00 0.00 0.00 77 1019.0
20181218231900 24 165 1.0 8.0 0.00 0.00 0.00 76 1019.0
20181218231402 24 260 0.0 1.0 0.00 0.00 0.00 76 1019.1
20181218230902 24 260 0.0 4.0 0.00 0.00 0.00 77 1019.1
20181218230402 24 260 0.0 4.0 0.00 0.00 0.00 77 1019.1
20181218225902 24 257 0.0 2.0 0.00 0.00 0.00 77 1019.0
20181218225402 24 257 0.0 2.0 0.00 0.00 0.00 77 1019.0
20181218224859 24 269 0.0 1.0 0.00 0.00 0.00 76 1019.0
20181218224359 25 269 0.0 2.0 0.00 0.00 0.00 76 1019.1
20181218223857 25 269 0.0 2.0 0.00 0.00 0.00 76 1019.1
20181218223358 25 269 0.0 2.0 0.00 0.00 0.00 75 1019.1
20181218222856 25 268 0.0 1.0 0.00 0.00 0.00 76 1018.8
20181218222354 25 268 0.0 1.0 0.00 0.00 0.00 75 1018.8
20181218221851 26 269 0.0 5.0 0.00 0.00 0.00 75 1018.8
20181218221351 26 269 1.0 7.0 0.00 0.00 0.00 75 1018.6
20181218220848 26 265 1.0 7.0 0.00 0.00 0.00 74 1018.6
20181218220349 26 283 1.0 5.0 0.00 0.00 0.00 73 1018.6
20181218215849 26 283 1.0 8.0 0.00 0.00 0.00 73 1018.4
20181218215349 26 300 1.0 8.0 0.00 0.00 0.00 72 1018.4
20181218214848 26 264 1.0 7.0 0.00 0.00 0.00 72 1018.4
20181218214350 27 59 1.0 7.0 0.00 0.00 0.00 72 1018.3
20181218213849 27 18 1.0 4.0 0.00 0.00 0.00 71 1018.3
20181218213349 27 327 0.0 4.0 0.00 0.00 0.00 71 1018.3
20181218212849 27 299 0.0 5.0 0.00 0.00 0.00 71 1018.3
20181218212348 28 5 1.0 5.0 0.00 0.00 0.00 71 1018.3
20181218211845 28 355 1.0 4.0 0.00 0.00 0.00 70 1018.3
20181218211344 28 315 1.0 3.0 0.00 0.00 0.00 69 1018.1
20181218210845 28 5 1.0 4.0 0.00 0.00 0.00 70 1018.1
20181218210344 29 159 1.0 6.0 0.00 0.00 0.00 69 1018.1
20181218205841 29 355 1.0 6.0 0.00 0.00 0.00 68 1018.1
20181218205341 29 290 0.0 6.0 0.00 0.00 0.00 69 1018.1
20181218204842 29 290 1.0 7.0 0.00 0.00 0.00 68 1018.1
20181218204338 29 303 2.0 9.0 0.00 0.00 0.00 67 1017.7
20181218203838 30 297 2.0 9.0 0.00 0.00 0.00 67 1017.7
20181218203339 30 333 1.0 7.0 0.00 0.00 0.00 67 1017.7
20181218202840 30 281 1.0 6.0 0.00 0.00 0.00 67 1017.6
20181218202337 31 277 1.0 6.0 0.00 0.00 0.00 65 1017.6
20181218201837 31 318 3.0 11.0 0.00 0.00 0.00 65 1017.6
20181218201336 31 315 3.0 14.0 0.00 0.00 0.00 65 1017.4
20181218200839 32 281 3.0 14.0 0.00 0.00 0.00 63 1017.4
20181218200334 32 355 2.0 10.0 0.00 0.00 0.00 63 1017.4
20181218195833 32 317 2.0 9.0 0.00 0.00 0.00 66 1017.1
20181218195334 32 317 5.0 16.0 0.00 0.00 0.00 65 1017.1
20181218194833 32 329 3.0 16.0 0.00 0.00 0.00 65 1017.1
20181218194332 32 299 2.0 7.0 0.00 0.00 0.00 66 1017.1
20181218193826 31 349 3.0 9.0 0.00 0.00 0.00 65 1017.1
20181218193328 31 261 3.0 11.0 0.00 0.00 0.00 67 1017.1
20181218192821 30 296 3.0 11.0 0.00 0.00 0.00 70 1017.0
20181218192321 30 225 3.0 9.0 0.00 0.00 0.00 69 1017.0
20181218191822 29 0 3.0 9.0 0.00 0.00 0.00 69 1017.0
20181218191323 29 277 3.0 10.0 0.00 0.00 0.00 69 1016.8
20181218190820 29 277 3.0 10.0 0.00 0.00 0.00 70 1016.8
20181218190320 29 312 3.0 8.0 0.00 0.00 0.00 70 1016.8
20181218185818 29 350 5.0 13.0 0.00 0.00 0.00 68 1016.6
20181218185319 29 276 4.0 13.0 0.00 0.00 0.00 67 1016.6
20181218184817 30 286 3.0 9.0 0.00 0.00 0.00 68 1016.6
20181218184316 30 271 3.0 9.0 0.00 0.00 0.00 67 1016.6
20181218183816 30 346 3.0 7.0 0.00 0.00 0.00 67 1016.6
20181218183317 29 311 3.0 7.0 0.00 0.00 0.00 67 1016.6
20181218182817 30 290 4.0 15.0 0.00 0.00 0.00 67 1016.5
20181218182315 30 252 3.0 15.0 0.00 0.00 0.00 65 1016.5
20181218181816 31 355 3.0 8.0 0.00 0.00 0.00 64 1016.5
20181218181317 31 311 4.0 11.0 0.00 0.00 0.00 64 1016.6
20181218180816 31 293 4.0 11.0 0.00 0.00 0.00 65 1016.6
20181218180316 31 346 4.0 10.0 0.00 0.00 0.00 65 1016.6
20181218175816 31 355 5.0 14.0 0.00 0.00 0.00 66 1016.5
20181218175317 30 322 5.0 14.0 0.00 0.00 0.00 66 1016.5
20181218174817 30 267 4.0 8.0 0.00 0.00 0.00 68 1016.5
20181218174317 29 350 4.0 13.0 0.00 0.00 0.00 66 1016.6
20181218173817 29 355 3.0 13.0 0.00 0.00 0.00 67 1016.6
20181218173316 29 342 4.0 11.0 0.00 0.00 0.00 67 1016.6
20181218172816 29 299 4.0 9.0 0.00 0.00 0.00 67 1016.6
20181218172317 29 312 4.0 10.0 0.00 0.00 0.00 65 1016.6
20181218171815 29 343 4.0 10.0 0.00 0.00 0.00 66 1016.6
20181218171314 29 319 6.0 13.0 0.00 0.00 0.00 65 1016.6
20181218170815 29 346 6.0 13.0 0.00 0.00 0.00 67 1016.6
20181218170315 30 275 6.0 15.0 0.00 0.00 0.00 65 1016.6
20181218165815 30 325 5.0 15.0 0.00 0.00 0.00 65 1016.6
20181218165314 30 342 4.0 9.0 0.00 0.00 0.00 66 1016.6
20181218164814 30 326 4.0 15.0 0.00 0.00 0.00 66 1016.6
20181218164315 30 311 3.0 15.0 0.00 0.00 0.00 66 1016.8
20181218163815 29 5 3.0 11.0 0.00 0.00 0.00 68 1016.8
20181218163317 29 355 5.0 15.0 0.00 0.00 0.00 67 1016.8
20181218162816 29 302 6.0 15.0 0.00 0.00 0.00 67 1017.0
20181218162314 28 295 5.0 15.0 0.00 0.00 0.00 69 1017.0
20181218161814 28 328 5.0 13.0 0.00 0.00 0.00 68 1017.0
20181218161314 28 342 5.0 13.0 0.00 0.00 0.00 68 1017.1
20181218160815 28 347 4.0 11.0 0.00 0.00 0.00 68 1017.1
20181218160314 28 303 4.0 11.0 0.00 0.00 0.00 70 1017.1
20181218155815 28 273 4.0 16.0 0.00 0.00 0.00 70 1016.9
20181218155314 28 19 5.0 16.0 0.00 0.00 0.00 69 1016.9
20181218154813 28 73 3.0 11.0 0.00 0.00 0.00 71 1016.9
20181218154315 28 321 3.0 9.0 0.00 0.00 0.00 72 1017.0
20181218153814 28 5 4.0 9.0 0.00 0.00 0.00 70 1017.0
20181218153311 28 31 4.0 9.0 0.00 0.00 0.00 73 1017.0
20181218152812 28 355 4.0 12.0 0.00 0.00 0.00 73 1016.9
20181218152313 27 288 3.0 12.0 0.00 0.00 0.00 74 1016.9
20181218151812 27 63 3.0 10.0 0.00 0.00 0.00 75 1016.9
20181218151313 27 331 3.0 9.0 0.00 0.00 0.00 78 1017.1
20181218150815 27 326 3.0 14.0 0.00 0.00 0.00 78 1017.1
20181218150313 27 32 3.0 14.0 0.00 0.00 0.00 78 1017.1
20181218145816 27 28 1.0 7.0 0.00 0.00 0.00 80 1016.7
20181218145312 27 0 1.0 7.0 0.00 0.00 0.00 80 1016.7
20181218144811 27 350 2.0 7.0 0.00 0.00 0.00 79 1016.7
20181218144315 27 284 2.0 8.0 0.00 0.00 0.00 81 1016.6
20181218143811 27 17 3.0 9.0 0.00 0.01 0.00 80 1016.6
20181218143311 27 87 3.0 9.0 0.00 0.01 0.00 80 1016.6
20181218142815 27 326 2.0 8.0 0.00 0.01 0.00 79 1016.5
20181218142310 27 23 2.0 10.0 0.00 0.01 0.00 80 1016.5
20181218141811 27 17 2.0 10.0 0.00 0.01 0.00 79 1016.5
20181218141317 27 59 1.0 8.0 0.00 0.01 0.00 80 1016.1
20181218140811 27 288 1.0 5.0 0.00 0.01 0.00 80 1016.1
20181218140308 27 290 2.0 9.0 0.00 0.01 0.00 80 1016.1
20181218135812 27 305 3.0 9.0 0.00 0.01 0.00 80 1016.0
20181218135308 27 303 3.0 11.0 0.00 0.01 0.00 79 1016.0
20181218134809 27 293 3.0 11.0 0.00 0.01 0.00 77 1016.0
20181218134310 27 348 2.0 8.0 0.00 0.01 0.00 78 1015.6
20181218133809 27 301 2.0 8.0 0.00 0.01 0.00 78 1015.6
20181218133306 27 319 3.0 10.0 0.00 0.02 0.00 77 1015.6
20181218132810 27 317 4.0 10.0 0.00 0.02 0.00 76 1015.4
20181218132308 27 351 4.0 13.0 0.00 0.02 0.00 76 1015.4
20181218131806 27 305 4.0 13.0 0.00 0.02 0.00 76 1015.4
20181218131310 27 308 4.0 10.0 0.00 0.02 0.00 74 1015.1
20181218130805 27 338 4.0 10.0 0.00 0.02 0.00 75 1015.1
20181218130303 27 306 4.0 10.0 0.00 0.02 0.00 75 1015.1
20181218125807 27 325 4.0 14.0 0.00 0.02 0.00 74 1014.9
20181218125304 27 270 4.0 14.0 0.00 0.02 0.00 74 1014.9
20181218124807 26 293 3.0 11.0 0.00 0.02 0.00 74 1014.9
20181218124304 26 51 5.0 12.0 0.00 0.02 0.00 73 1014.8
20181218123802 26 303 6.0 16.0 0.00 0.02 0.00 72 1014.8
20181218123301 26 248 5.0 16.0 0.00 0.02 0.00 73 1014.8
20181218122805 26 325 6.0 15.0 0.00 0.02 0.00 72 1014.5
20181218122301 26 295 7.0 24.0 0.00 0.02 0.00 72 1014.5
20181218121802 27 336 7.0 24.0 0.00 0.02 0.00 72 1014.5
20181218121302 27 344 7.0 16.0 0.00 0.02 0.00 72 1014.5
20181218120802 27 347 7.0 17.0 0.00 0.02 0.00 71 1014.5
20181218120302 27 347 7.0 17.0 0.00 0.02 0.00 72 1014.5
20181218115801 27 254 6.0 17.0 0.00 0.02 0.00 73 1014.3
20181218115302 27 31 6.0 17.0 0.00 0.02 0.00 74 1014.3
20181218114801 27 275 5.0 17.0 0.00 0.03 0.00 74 1014.3
20181218114303 27 67 4.0 14.0 0.00 0.03 0.00 75 1014.3
20181218113757 27 302 4.0 14.0 0.00 0.03 0.00 75 1014.3
20181218113258 27 304 4.0 14.0 0.00 0.03 0.00 76 1014.3
20181218112757 27 348 3.0 11.0 0.00 0.03 0.00 76 1014.0
20181218112257 28 318 3.0 12.0 0.00 0.03 0.00 77 1014.0
20181218111752 27 320 4.0 12.0 0.00 0.03 0.00 75 1014.0
20181218111255 27 348 4.0 12.0 0.00 0.03 0.00 75 1013.6
20181218110751 27 272 5.0 17.0 0.00 0.03 0.00 76 1013.6
20181218110251 27 293 5.0 19.0 0.00 0.03 0.00 76 1013.6
20181218105747 27 275 5.0 19.0 0.00 0.03 0.00 75 1013.3
20181218105248 27 298 5.0 19.0 0.00 0.03 0.00 76 1013.3
20181218104741 27 313 5.0 19.0 0.00 0.03 0.00 75 1013.3
20181218104243 27 320 5.0 18.0 0.00 0.03 0.00 74 1012.9
20181218103741 27 310 5.0 18.0 0.00 0.03 0.00 74 1012.9
20181218103243 27 288 5.0 17.0 0.00 0.04 0.00 73 1012.9
20181218102742 27 312 7.0 19.0 0.00 0.04 0.00 73 1012.9
20181218102241 27 324 6.0 19.0 0.00 0.04 0.00 73 1012.9
20181218101741 27 317 6.0 20.0 0.00 0.04 0.00 73 1012.9
20181218101242 27 319 6.0 20.0 0.00 0.04 0.00 72 1012.9
20181218100737 27 283 6.0 16.0 0.00 0.04 0.00 73 1012.9
20181218100240 28 309 5.0 15.0 0.00 0.04 0.00 74 1012.9
20181218095735 28 321 6.0 15.0 0.00 0.04 0.00 73 1012.6
20181218095235 28 317 5.0 15.0 0.00 0.04 0.00 74 1012.6
20181218094734 28 0 4.0 15.0 0.00 0.04 0.00 72 1012.6
20181218094231 28 355 4.0 15.0 0.00 0.04 0.00 72 1012.4
20181218093733 28 350 5.0 15.0 0.00 0.04 0.00 73 1012.4
20181218093232 28 302 5.0 15.0 0.00 0.04 0.00 71 1012.4
20181218092730 28 336 5.0 14.0 0.00 0.04 0.00 72 1012.4
20181218092229 28 315 6.0 16.0 0.00 0.04 0.00 72 1012.4
20181218091731 28 333 5.0 16.0 0.00 0.04 0.00 72 1012.4
20181218091230 28 284 4.0 15.0 0.00 0.04 0.00 72 1012.2
20181218090731 29 327 5.0 21.0 0.00 0.04 0.00 72 1012.2
20181218090232 29 287 7.0 21.0 0.00 0.04 0.00 72 1012.2
20181218085729 29 298 6.0 21.0 0.00 0.04 0.00 72 1012.0
20181218085230 29 338 5.0 21.0 0.00 0.05 0.00 71 1012.0
20181218084729 29 315 7.0 15.0 0.00 0.05 0.00 72 1012.0
20181218084229 29 0 6.0 15.0 0.00 0.05 0.00 73 1011.7
20181218083729 29 249 5.0 14.0 0.00 0.05 0.00 73 1011.7
20181218083229 29 343 6.0 23.0 0.00 0.05 0.00 73 1011.7
20181218082735 29 309 6.0 23.0 0.00 0.05 0.00 73 1011.3
20181218082229 29 350 5.0 18.0 0.00 0.05 0.00 73 1011.3
20181218081731 29 321 6.0 15.0 0.00 0.05 0.00 72 1011.3
20181218081233 29 339 6.0 15.0 0.00 0.05 0.00 72 1011.2
20181218080729 29 5 6.0 17.0 0.00 0.05 0.00 72 1011.2
20181218080229 29 346 7.0 17.0 0.00 0.05 0.00 71 1011.2
20181218075729 29 355 8.0 20.0 0.00 0.05 0.00 71 1011.2
20181218075232 29 338 9.0 23.0 0.00 0.05 0.00 70 1011.2
20181218074728 29 344 8.0 23.0 0.00 0.05 0.00 71 1011.2
20181218074228 29 251 7.0 26.0 0.00 0.05 0.00 72 1010.7
20181218073726 30 5 7.0 26.0 0.00 0.05 0.00 71 1010.7
20181218073225 30 321 7.0 21.0 0.00 0.05 0.00 71 1010.7
20181218072729 30 318 6.0 21.0 0.00 0.05 0.00 72 1010.3
20181218072225 30 355 4.0 19.0 0.00 0.05 0.00 71 1010.3
20181218071726 30 338 6.0 19.0 0.00 0.05 0.00 71 1010.3
20181218071225 31 275 6.0 19.0 0.00 0.06 0.00 70 1010.3
20181218070727 31 323 5.0 12.0 0.00 0.06 0.00 71 1010.3
20181218070225 31 329 5.0 13.0 0.00 0.06 0.00 71 1010.3
20181218065725 31 315 6.0 13.0 0.00 0.06 0.00 70 1010.0
20181218065227 31 304 6.0 15.0 0.00 0.06 0.00 71 1010.0
20181218064726 31 269 5.0 15.0 0.00 0.06 0.00 72 1010.0
20181218064226 31 281 4.0 13.0 0.00 0.06 0.00 73 1009.7
20181218063726 31 315 4.0 13.0 0.00 0.06 0.00 73 1009.7
20181218063225 31 295 6.0 15.0 0.00 0.06 0.00 73 1009.7
20181218062726 31 343 5.0 15.0 0.00 0.06 0.00 72 1009.8
20181218062223 31 281 6.0 22.0 0.00 0.06 0.00 71 1009.8
20181218061724 31 334 8.0 22.0 0.00 0.06 0.00 70 1009.8
20181218061224 31 293 7.0 21.0 0.00 0.06 0.00 70 1009.6
20181218060723 31 332 7.0 21.0 0.00 0.06 0.00 70 1009.6
20181218060223 31 303 7.0 16.0 0.00 0.06 0.00 70 1009.6
20181218055724 31 10 8.0 17.0 0.00 0.06 0.00 70 1009.6
20181218055224 32 289 7.0 17.0 0.00 0.06 0.00 70 1009.6
20181218054726 32 262 6.0 16.0 0.00 0.06 0.00 69 1009.6
20181218054223 32 339 5.0 12.0 0.00 0.06 0.00 71 1009.1
20181218053725 33 282 4.0 12.0 0.00 0.06 0.00 72 1009.1
20181218053225 33 290 3.0 12.0 0.00 0.06 0.00 72 1009.1
20181218052722 33 321 3.0 12.0 0.00 0.06 0.00 73 1009.0
20181218052223 33 330 5.0 18.0 0.00 0.07 0.00 73 1009.0
20181218051723 33 355 6.0 18.0 0.00 0.07 0.00 73 1009.0
20181218051223 33 296 6.0 17.0 0.00 0.07 0.00 73 1008.7
20181218050724 33 266 5.0 17.0 0.00 0.07 0.00 73 1008.7
20181218050226 34 314 5.0 11.0 0.00 0.07 0.00 74 1008.7